Time;durP1;ratioP1;P1;durP2;ratioP2;P2;SDS_P1;SDS_P2;PMS_P1;PMS_P2;Temp;Humidity;BMP_temperature;BMP_pressure;BME280_temperature;BME280_humidity;BME280_pressure;Samples;Min_cycle;Max_cycle;Signal;HPM_P1;HPM_P2
2022/06/01 00:01:30;;;;;;;21.52;15.00;;;;;;;;;;5069239;28;20090;-61
2022/06/01 00:03:56;;;;;;;18.27;14.32;;;;;;;;;;5069854;28;20087;-60
2022/06/01 00:06:22;;;;;;;17.98;14.95;;;;;;;;;;5051922;28;20047;-61
2022/06/01 00:08:48;;;;;;;18.80;14.40;;;;;;;;;;5071167;28;20051;-61
2022/06/01 00:11:16;;;;;;;18.33;14.77;;;;;;;;;;5080898;28;20482;-60
2022/06/01 00:13:42;;;;;;;22.05;14.82;;;;;;;;;;5073921;28;20539;-60
2022/06/01 00:16:08;;;;;;;16.42;14.25;;;;;;;;;;5073972;28;20037;-60
2022/06/01 00:18:35;;;;;;;18.88;14.73;;;;;;;;;;5072398;28;20039;-60
2022/06/01 00:21:01;;;;;;;20.63;15.35;;;;;;;;;;5073425;28;20044;-60
2022/06/01 00:23:27;;;;;;;18.85;15.52;;;;;;;;;;5072238;28;20063;-61
2022/06/01 00:25:53;;;;;;;19.25;15.80;;;;;;;;;;5051772;28;20449;-60
2022/06/01 00:28:19;;;;;;;19.08;15.05;;;;;;;;;;5079111;28;20028;-60
2022/06/01 00:30:45;;;;;;;18.60;15.65;;;;;;;;;;5072050;28;20036;-60
2022/06/01 00:33:11;;;;;;;20.48;15.75;;;;;;;;;;5074079;28;20420;-60
2022/06/01 00:35:37;;;;;;;18.70;15.43;;;;;;;;;;5054342;28;20461;-60
2022/06/01 00:38:03;;;;;;;18.75;15.10;;;;;;;;;;5073440;28;20067;-60
2022/06/01 00:40:30;;;;;;;21.02;16.17;;;;;;;;;;5072954;28;20538;-61
2022/06/01 00:42:57;;;;;;;20.73;16.35;;;;;;;;;;5074198;28;20047;-60
2022/06/01 00:45:25;;;;;;;21.05;16.02;;;;;;;;;;5068174;28;20037;-61
2022/06/01 00:50:31;;;;;;;21.13;16.08;;;;;;;;;;5113386;28;20047;-63
2022/06/01 00:53:03;;;;;;;18.48;15.45;;;;;;;;;;5112873;28;20051;-63
2022/06/01 00:55:32;;;;;;;19.15;15.32;;;;;;;;;;5110386;28;20378;-63
2022/06/01 00:58:05;;;;;;;21.02;16.33;;;;;;;;;;5118874;27;20038;-63
2022/06/01 01:00:32;;;;;;;19.88;15.38;;;;;;;;;;5114522;28;20039;-63
2022/06/01 01:03:00;;;;;;;20.10;15.75;;;;;;;;;;5102484;28;20043;-63
2022/06/01 01:05:27;;;;;;;18.45;15.63;;;;;;;;;;5114245;28;20445;-63
2022/06/01 01:07:54;;;;;;;20.38;16.23;;;;;;;;;;5109940;28;20046;-63
2022/06/01 01:10:20;;;;;;;24.00;18.17;;;;;;;;;;5105664;28;20031;-63
2022/06/01 01:12:56;;;;;;;20.77;16.25;;;;;;;;;;5086787;28;20044;-63
2022/06/01 01:15:24;;;;;;;19.80;15.80;;;;;;;;;;5123514;27;20133;-63
2022/06/01 01:17:51;;;;;;;21.92;16.27;;;;;;;;;;5109076;27;20086;-63
2022/06/01 01:20:17;;;;;;;20.77;15.25;;;;;;;;;;5108579;28;20600;-63
2022/06/01 01:22:48;;;;;;;20.00;15.70;;;;;;;;;;5107298;28;20058;-63
2022/06/01 01:25:14;;;;;;;19.70;15.10;;;;;;;;;;5105468;28;20036;-63
2022/06/01 01:27:40;;;;;;;18.23;15.02;;;;;;;;;;5104108;28;20469;-63
2022/06/01 01:30:29;;;;;;;20.63;16.55;;;;;;;;;;5109036;28;20077;-63
2022/06/01 01:32:55;;;;;;;21.13;16.02;;;;;;;;;;5056466;28;20113;-63
2022/06/01 01:35:21;;;;;;;20.08;16.10;;;;;;;;;;5123255;27;20700;-64
2022/06/01 01:37:52;;;;;;;22.27;16.98;;;;;;;;;;5109536;27;20066;-63
2022/06/01 01:40:18;;;;;;;19.70;16.63;;;;;;;;;;5112685;27;20039;-63
2022/06/01 01:42:45;;;;;;;21.08;16.75;;;;;;;;;;5107702;27;20054;-63
2022/06/01 01:45:23;;;;;;;19.45;15.93;;;;;;;;;;5106892;27;20067;-63
2022/06/01 01:47:49;;;;;;;18.38;16.20;;;;;;;;;;5110136;28;20520;-63
2022/06/01 01:50:15;;;;;;;20.88;16.58;;;;;;;;;;5112517;28;20036;-63
2022/06/01 01:52:41;;;;;;;20.88;16.33;;;;;;;;;;5123708;27;20042;-63
2022/06/01 01:55:10;;;;;;;20.77;17.23;;;;;;;;;;5122265;27;20088;-63
2022/06/01 01:57:48;;;;;;;22.17;16.42;;;;;;;;;;5115560;27;20037;-63
2022/06/01 02:00:17;;;;;;;21.00;17.00;;;;;;;;;;5101902;28;20044;-63
2022/06/01 02:02:50;;;;;;;20.65;16.15;;;;;;;;;;5103839;28;20032;-63
2022/06/01 02:08:15;;;;;;;21.48;17.52;;;;;;;;;;5091425;27;20044;-63
2022/06/01 02:13:27;;;;;;;21.38;16.95;;;;;;;;;;5108423;28;20118;-63
2022/06/01 02:15:53;;;;;;;23.60;16.77;;;;;;;;;;5102903;27;20043;-63
2022/06/01 02:18:23;;;;;;;20.17;16.95;;;;;;;;;;5110866;28;20035;-63
2022/06/01 02:20:52;;;;;;;23.25;18.73;;;;;;;;;;5103543;28;20469;-63
2022/06/01 02:23:18;;;;;;;20.73;17.70;;;;;;;;;;5104652;27;20039;-63
2022/06/01 02:25:45;;;;;;;25.45;20.05;;;;;;;;;;5102641;28;20551;-63
2022/06/01 02:28:11;;;;;;;22.98;18.88;;;;;;;;;;5110675;28;20389;-63
2022/06/01 02:30:39;;;;;;;23.80;19.20;;;;;;;;;;5110277;28;20057;-63
2022/06/01 02:33:08;;;;;;;23.33;19.70;;;;;;;;;;5115179;27;20135;-63
2022/06/01 02:35:36;;;;;;;24.73;19.23;;;;;;;;;;5110268;28;20515;-63
2022/06/01 02:38:03;;;;;;;25.35;20.58;;;;;;;;;;5101024;28;20099;-63
2022/06/01 02:40:29;;;;;;;23.77;19.90;;;;;;;;;;5116499;27;20067;-63
2022/06/01 02:42:55;;;;;;;25.55;19.58;;;;;;;;;;5107473;27;20496;-63
2022/06/01 02:45:26;;;;;;;23.80;19.58;;;;;;;;;;5109206;28;20032;-63
2022/06/01 02:47:53;;;;;;;23.58;19.42;;;;;;;;;;5104673;28;20036;-63
2022/06/01 02:50:21;;;;;;;25.75;19.58;;;;;;;;;;5107398;27;20421;-63
2022/06/01 02:52:47;;;;;;;24.27;19.27;;;;;;;;;;5102904;27;20123;-64
2022/06/01 02:55:14;;;;;;;27.00;19.88;;;;;;;;;;5109951;28;20035;-63
2022/06/01 02:57:41;;;;;;;25.52;19.73;;;;;;;;;;5112437;27;20027;-63
2022/06/01 03:00:17;;;;;;;25.70;20.10;;;;;;;;;;5110431;27;20039;-64
2022/06/01 03:02:44;;;;;;;25.58;19.40;;;;;;;;;;5113504;27;20055;-63
2022/06/01 03:05:10;;;;;;;24.63;18.63;;;;;;;;;;5097783;28;20096;-63
2022/06/01 03:07:36;;;;;;;24.13;18.35;;;;;;;;;;5101995;28;20370;-63
2022/06/01 03:10:02;;;;;;;23.70;18.83;;;;;;;;;;5107348;28;20035;-63
2022/06/01 03:12:28;;;;;;;23.17;18.75;;;;;;;;;;5107507;28;20047;-63
2022/06/01 03:14:54;;;;;;;22.13;18.23;;;;;;;;;;5107479;27;20036;-63
2022/06/01 03:17:20;;;;;;;21.40;17.75;;;;;;;;;;5103995;27;20046;-63
2022/06/01 03:19:46;;;;;;;24.13;18.08;;;;;;;;;;5105939;28;20118;-63
2022/06/01 03:22:12;;;;;;;22.13;18.27;;;;;;;;;;5098159;28;20571;-63
2022/06/01 03:24:39;;;;;;;21.25;18.17;;;;;;;;;;5101763;28;20039;-63
2022/06/01 03:27:06;;;;;;;19.63;17.50;;;;;;;;;;5105715;28;20036;-63
2022/06/01 03:29:32;;;;;;;21.63;17.65;;;;;;;;;;5104985;28;20054;-63
2022/06/01 03:31:58;;;;;;;22.10;17.88;;;;;;;;;;5110532;27;20043;-63
2022/06/01 03:34:25;;;;;;;21.58;18.40;;;;;;;;;;5105103;28;20600;-63
2022/06/01 03:36:51;;;;;;;22.63;18.67;;;;;;;;;;5098975;28;20039;-63
2022/06/01 03:39:17;;;;;;;24.02;18.77;;;;;;;;;;5111232;28;20361;-63
2022/06/01 03:41:43;;;;;;;23.65;19.27;;;;;;;;;;5107207;28;20087;-63
2022/06/01 03:47:00;;;;;;;24.55;18.70;;;;;;;;;;5104360;28;20043;-63
2022/06/01 03:49:26;;;;;;;22.95;18.42;;;;;;;;;;5110526;28;20516;-63
2022/06/01 03:51:52;;;;;;;22.92;19.42;;;;;;;;;;5114107;28;20530;-63
2022/06/01 03:54:18;;;;;;;24.35;19.48;;;;;;;;;;5111988;28;20555;-63
2022/06/01 03:56:45;;;;;;;25.88;20.52;;;;;;;;;;5112141;27;20118;-63
2022/06/01 03:59:11;;;;;;;25.67;20.08;;;;;;;;;;5110753;27;20054;-63
2022/06/01 04:01:37;;;;;;;24.15;20.35;;;;;;;;;;5107546;28;20040;-63
2022/06/01 04:04:04;;;;;;;27.10;20.00;;;;;;;;;;5116821;27;20396;-63
2022/06/01 04:06:30;;;;;;;25.88;21.40;;;;;;;;;;5112578;28;20477;-63
2022/06/01 04:08:56;;;;;;;28.05;20.80;;;;;;;;;;5104587;28;20040;-63
2022/06/01 04:11:23;;;;;;;24.75;20.77;;;;;;;;;;5108866;28;20032;-63
2022/06/01 04:13:49;;;;;;;29.00;21.77;;;;;;;;;;5108921;28;20097;-63
2022/06/01 04:16:18;;;;;;;28.10;22.52;;;;;;;;;;5114675;28;20075;-63
2022/06/01 04:18:44;;;;;;;26.35;21.70;;;;;;;;;;5103400;28;20055;-63
2022/06/01 04:21:11;;;;;;;25.35;20.90;;;;;;;;;;5107832;28;20040;-63
2022/06/01 04:23:37;;;;;;;28.77;22.17;;;;;;;;;;5102975;28;20032;-63
2022/06/01 04:26:03;;;;;;;29.08;21.88;;;;;;;;;;5119898;27;20053;-63
2022/06/01 04:28:29;;;;;;;28.60;22.75;;;;;;;;;;5108394;28;20036;-63
2022/06/01 04:30:55;;;;;;;27.45;21.45;;;;;;;;;;5109725;28;20059;-63
2022/06/01 04:33:21;;;;;;;28.52;22.30;;;;;;;;;;5110217;28;20050;-63
2022/06/01 04:35:47;;;;;;;28.65;22.38;;;;;;;;;;5111571;28;20137;-63
2022/06/01 04:38:13;;;;;;;27.13;22.15;;;;;;;;;;5109500;27;20032;-63
2022/06/01 04:40:41;;;;;;;28.17;22.23;;;;;;;;;;5103453;28;20396;-63
2022/06/01 04:43:07;;;;;;;30.10;23.23;;;;;;;;;;5112883;27;20082;-63
2022/06/01 04:45:33;;;;;;;28.95;23.20;;;;;;;;;;5108693;28;20032;-63
2022/06/01 04:47:59;;;;;;;28.17;22.00;;;;;;;;;;5101461;28;20043;-63
2022/06/01 04:50:25;;;;;;;29.48;22.63;;;;;;;;;;5115485;27;20046;-63
2022/06/01 04:52:51;;;;;;;28.02;21.73;;;;;;;;;;5110782;27;20122;-63
2022/06/01 04:55:17;;;;;;;29.70;22.42;;;;;;;;;;5108983;28;20061;-63
2022/06/01 04:57:43;;;;;;;28.35;23.10;;;;;;;;;;5113108;28;20059;-63
2022/06/01 05:00:10;;;;;;;31.17;22.25;;;;;;;;;;5112543;28;20484;-63
2022/06/01 05:02:37;;;;;;;27.98;22.40;;;;;;;;;;5110366;27;20040;-63
2022/06/01 05:05:03;;;;;;;26.98;22.98;;;;;;;;;;5094526;28;20040;-63
2022/06/01 05:07:29;;;;;;;32.13;23.70;;;;;;;;;;5108090;28;20051;-63
2022/06/01 05:09:55;;;;;;;30.05;22.90;;;;;;;;;;5112795;28;20040;-63
2022/06/01 05:12:21;;;;;;;32.08;23.08;;;;;;;;;;5107514;28;20046;-64
2022/06/01 05:14:47;;;;;;;30.67;24.33;;;;;;;;;;5105617;28;20047;-63
2022/06/01 05:17:13;;;;;;;28.52;23.02;;;;;;;;;;5105033;27;20032;-63
2022/06/01 05:19:39;;;;;;;30.88;24.45;;;;;;;;;;5104292;28;20381;-63
2022/06/01 05:22:05;;;;;;;33.40;24.65;;;;;;;;;;5106626;28;20037;-63
2022/06/01 05:24:31;;;;;;;32.00;23.50;;;;;;;;;;5110997;28;20382;-63
2022/06/01 05:26:57;;;;;;;32.67;25.63;;;;;;;;;;5108608;28;20094;-63
2022/06/01 05:29:23;;;;;;;34.60;25.15;;;;;;;;;;5103767;28;20552;-63
2022/06/01 05:31:50;;;;;;;34.05;25.27;;;;;;;;;;5112706;28;20042;-63
2022/06/01 05:34:16;;;;;;;31.77;24.70;;;;;;;;;;5102421;28;20113;-63
2022/06/01 05:36:42;;;;;;;32.90;24.42;;;;;;;;;;5098410;28;20043;-63
2022/06/01 05:39:08;;;;;;;31.85;24.67;;;;;;;;;;5108657;28;20032;-63
2022/06/01 05:41:34;;;;;;;34.85;25.30;;;;;;;;;;5106241;28;20504;-63
2022/06/01 05:44:01;;;;;;;31.65;24.00;;;;;;;;;;5107318;28;20410;-63
2022/06/01 05:46:27;;;;;;;36.35;25.92;;;;;;;;;;5111199;28;20507;-63
2022/06/01 05:48:53;;;;;;;34.53;26.67;;;;;;;;;;5105119;28;20119;-63
2022/06/01 05:51:19;;;;;;;33.35;25.42;;;;;;;;;;5110075;28;20046;-63
2022/06/01 05:53:45;;;;;;;35.97;26.05;;;;;;;;;;5109266;28;20629;-63
2022/06/01 05:56:11;;;;;;;31.95;26.23;;;;;;;;;;5112053;27;20440;-63
2022/06/01 05:58:37;;;;;;;34.47;25.83;;;;;;;;;;5108475;27;20122;-63
2022/06/01 06:01:05;;;;;;;35.42;26.75;;;;;;;;;;5107500;28;20503;-63
2022/06/01 06:03:32;;;;;;;31.63;24.60;;;;;;;;;;5113018;28;20493;-63
2022/06/01 06:06:15;;;;;;;31.70;24.60;;;;;;;;;;5119715;27;20036;-63
2022/06/01 06:08:43;;;;;;;30.13;23.58;;;;;;;;;;5107472;28;20077;-63
2022/06/01 06:11:09;;;;;;;31.58;23.70;;;;;;;;;;5108829;27;20042;-63
2022/06/01 06:13:36;;;;;;;31.67;23.65;;;;;;;;;;5111692;28;20044;-63
2022/06/01 06:16:02;;;;;;;31.48;22.35;;;;;;;;;;5107420;28;20527;-63
2022/06/01 06:18:29;;;;;;;29.48;21.98;;;;;;;;;;5103578;28;20050;-63
2022/06/01 06:20:55;;;;;;;29.05;23.05;;;;;;;;;;5107805;28;20047;-63
2022/06/01 06:23:21;;;;;;;30.25;23.88;;;;;;;;;;5107311;28;20119;-63
2022/06/01 06:25:48;;;;;;;25.67;20.00;;;;;;;;;;5106606;28;20032;-63
2022/06/01 06:28:14;;;;;;;23.90;18.80;;;;;;;;;;5107053;28;20041;-63
2022/06/01 06:30:40;;;;;;;24.52;19.08;;;;;;;;;;5110045;28;20067;-63
2022/06/01 06:33:07;;;;;;;24.20;18.60;;;;;;;;;;5102992;28;20122;-63
2022/06/01 06:35:33;;;;;;;24.25;17.42;;;;;;;;;;5103237;28;20039;-63
2022/06/01 06:38:00;;;;;;;23.85;18.15;;;;;;;;;;5118434;27;21370;-63
2022/06/01 06:40:26;;;;;;;22.48;17.38;;;;;;;;;;5106796;28;20047;-63
2022/06/01 06:42:53;;;;;;;20.77;16.38;;;;;;;;;;5110315;28;20046;-63
2022/06/01 06:45:19;;;;;;;25.10;17.42;;;;;;;;;;5124949;27;20461;-63
2022/06/01 06:47:45;;;;;;;26.02;17.85;;;;;;;;;;5112493;27;20047;-63
2022/06/01 06:50:13;;;;;;;27.48;20.75;;;;;;;;;;5103569;22;20048;-62
2022/06/01 06:52:39;;;;;;;24.02;18.27;;;;;;;;;;5085426;28;20036;-62
2022/06/01 06:55:06;;;;;;;24.20;18.10;;;;;;;;;;5068067;28;20045;-60
2022/06/01 06:57:32;;;;;;;25.25;17.90;;;;;;;;;;5080382;28;20045;-60
2022/06/01 06:59:58;;;;;;;19.90;15.70;;;;;;;;;;5067537;28;20058;-60
2022/06/01 07:02:24;;;;;;;21.23;15.85;;;;;;;;;;5084617;28;20040;-60
2022/06/01 07:04:50;;;;;;;19.67;15.40;;;;;;;;;;5083424;28;20032;-60
2022/06/01 07:07:16;;;;;;;19.05;15.38;;;;;;;;;;5064068;28;20044;-60
2022/06/01 07:09:42;;;;;;;19.77;14.70;;;;;;;;;;5083113;28;20161;-60
2022/06/01 07:12:10;;;;;;;19.77;14.20;;;;;;;;;;5086288;28;20075;-60
2022/06/01 07:14:36;;;;;;;19.90;14.63;;;;;;;;;;5055876;28;20043;-60
2022/06/01 07:17:02;;;;;;;21.02;16.95;;;;;;;;;;5080820;28;20040;-60
2022/06/01 07:19:28;;;;;;;19.42;14.35;;;;;;;;;;5085096;28;20044;-60
2022/06/01 07:21:54;;;;;;;22.90;16.30;;;;;;;;;;5088437;28;20490;-60
2022/06/01 07:24:21;;;;;;;18.23;15.27;;;;;;;;;;5088333;28;20046;-60
2022/06/01 07:26:47;;;;;;;21.17;15.50;;;;;;;;;;5083154;28;20036;-60
2022/06/01 07:29:14;;;;;;;18.33;14.88;;;;;;;;;;5087052;28;20047;-60
2022/06/01 07:31:41;;;;;;;18.77;14.65;;;;;;;;;;5080983;28;20033;-60
2022/06/01 07:34:07;;;;;;;18.02;14.05;;;;;;;;;;5083053;28;20578;-60
2022/06/01 07:36:34;;;;;;;16.55;13.60;;;;;;;;;;5087530;28;20648;-60
2022/06/01 07:44:38;;;;;;;16.90;12.98;;;;;;;;;;5086789;28;20068;-60
2022/06/01 07:47:04;;;;;;;16.52;13.50;;;;;;;;;;5084920;28;20055;-60
2022/06/01 07:49:30;;;;;;;16.80;13.68;;;;;;;;;;5088447;28;20047;-60
2022/06/01 07:51:56;;;;;;;16.67;13.63;;;;;;;;;;5086180;28;20515;-60
2022/06/01 07:54:22;;;;;;;16.83;14.02;;;;;;;;;;5085013;28;20040;-61
2022/06/01 07:56:49;;;;;;;16.33;12.18;;;;;;;;;;5063493;28;20047;-61
2022/06/01 07:59:15;;;;;;;14.80;11.90;;;;;;;;;;5085627;28;20408;-60
2022/06/01 08:01:41;;;;;;;12.35;9.88;;;;;;;;;;5086788;28;20036;-61
2022/06/01 08:04:08;;;;;;;9.68;8.10;;;;;;;;;;5083565;28;20040;-61
2022/06/01 08:06:34;;;;;;;11.57;9.90;;;;;;;;;;5085433;28;20058;-61
2022/06/01 08:09:00;;;;;;;13.45;11.15;;;;;;;;;;5088982;28;20044;-61
2022/06/01 08:14:12;;;;;;;11.23;9.80;;;;;;;;;;5080509;28;20044;-62
2022/06/01 08:16:39;;;;;;;8.05;6.88;;;;;;;;;;5080954;28;20040;-62
2022/06/01 08:19:07;;;;;;;8.43;6.68;;;;;;;;;;5071231;28;20044;-62
2022/06/01 08:21:34;;;;;;;8.50;7.30;;;;;;;;;;5086028;28;20039;-62
2022/06/01 08:24:00;;;;;;;9.93;7.38;;;;;;;;;;5086224;28;20158;-62
2022/06/01 08:26:26;;;;;;;7.93;6.68;;;;;;;;;;5062894;28;20116;-62
2022/06/01 08:28:52;;;;;;;9.02;7.57;;;;;;;;;;5063089;28;20052;-62
2022/06/01 08:31:18;;;;;;;10.30;8.02;;;;;;;;;;5086433;28;20051;-62
2022/06/01 08:33:44;;;;;;;9.50;8.18;;;;;;;;;;5087994;28;20497;-62
2022/06/01 08:36:10;;;;;;;10.50;7.38;;;;;;;;;;5084629;28;20443;-62
2022/06/01 08:38:37;;;;;;;12.55;7.70;;;;;;;;;;5083038;28;20439;-61
2022/06/01 08:41:10;;;;;;;8.35;6.68;;;;;;;;;;5087451;28;20480;-60
2022/06/01 08:43:40;;;;;;;8.38;6.28;;;;;;;;;;5085324;28;20032;-60
2022/06/01 08:46:07;;;;;;;8.33;5.80;;;;;;;;;;5089058;28;20494;-60
2022/06/01 08:48:35;;;;;;;9.10;5.53;;;;;;;;;;5070951;28;20044;-60
2022/06/01 08:51:01;;;;;;;8.02;4.18;;;;;;;;;;5094711;28;20074;-60
2022/06/01 08:53:28;;;;;;;5.38;3.70;;;;;;;;;;5089752;28;20043;-61
2022/06/01 08:55:56;;;;;;;8.55;4.78;;;;;;;;;;5082400;28;20134;-62
2022/06/01 08:58:27;;;;;;;6.05;4.20;;;;;;;;;;5086981;28;20054;-61
2022/06/01 09:00:53;;;;;;;;;;;;;;;;;;5084739;28;20161;-61
2022/06/01 09:03:32;;;;;;;2.53;2.20;;;;;;;;;;5081323;28;20006;-61
2022/06/01 09:06:04;;;;;;;3.40;2.00;;;;;;;;;;5082673;28;20028;-62
2022/06/01 09:08:30;;;;;;;2.33;1.42;;;;;;;;;;5088134;28;20498;-63
2022/06/01 09:10:59;;;;;;;1.83;1.25;;;;;;;;;;5086430;28;20421;-63
2022/06/01 09:13:27;;;;;;;2.85;1.45;;;;;;;;;;5090314;28;20119;-63
2022/06/01 09:16:05;;;;;;;4.25;1.20;;;;;;;;;;5087414;28;20047;-63
2022/06/01 09:18:36;;;;;;;1.70;1.42;;;;;;;;;;5091687;28;20492;-63
2022/06/01 09:23:47;;;;;;;1.83;1.40;;;;;;;;;;5088953;28;20080;-63
2022/06/01 09:26:24;;;;;;;1.92;1.75;;;;;;;;;;5092801;28;20039;-63
2022/06/01 09:28:52;;;;;;;3.38;2.03;;;;;;;;;;5075246;28;20041;-63
2022/06/01 09:31:24;;;;;;;1.98;1.60;;;;;;;;;;5079446;28;20032;-63
2022/06/01 09:33:49;;;;;;;;;;;;;;;;;;5082692;28;20044;-62
2022/06/01 09:36:26;;;;;;;2.38;1.98;;;;;;;;;;5086294;28;20414;-62
2022/06/01 09:38:54;;;;;;;2.22;1.73;;;;;;;;;;5093082;28;20501;-62
2022/06/01 09:41:21;;;;;;;2.90;2.00;;;;;;;;;;5086951;28;20036;-62
2022/06/01 09:43:54;;;;;;;1.65;1.40;;;;;;;;;;5076726;28;20051;-62
2022/06/01 09:46:24;;;;;;;1.98;1.73;;;;;;;;;;5091439;28;20089;-62
2022/06/01 09:48:51;;;;;;;2.58;1.80;;;;;;;;;;5073007;28;20374;-62
2022/06/01 09:51:18;;;;;;;1.67;1.58;;;;;;;;;;5091543;28;20036;-62
2022/06/01 09:53:46;;;;;;;3.17;2.00;;;;;;;;;;5090782;28;20145;-62
2022/06/01 09:56:16;;;;;;;2.13;1.92;;;;;;;;;;5088059;28;20508;-62
2022/06/01 10:07:01;;;;;;;2.13;1.95;;;;;;;;;;5090472;28;20044;-62
2022/06/01 10:09:31;;;;;;;2.17;1.98;;;;;;;;;;5092369;28;20028;-62
2022/06/01 10:11:58;;;;;;;3.85;2.42;;;;;;;;;;5086858;28;20040;-62
2022/06/01 10:14:32;;;;;;;2.80;2.60;;;;;;;;;;5077656;28;20036;-62
2022/06/01 10:17:04;;;;;;;7.75;3.20;;;;;;;;;;5086533;28;20405;-62
2022/06/01 10:19:30;;;;;;;3.67;1.23;;;;;;;;;;5059775;28;20123;-62
2022/06/01 10:22:02;;;;;;;3.83;1.40;;;;;;;;;;5082105;28;20460;-62
2022/06/01 10:24:48;;;;;;;4.50;1.50;;;;;;;;;;5082843;28;20382;-62
2022/06/01 10:27:16;;;;;;;2.30;1.30;;;;;;;;;;5082548;28;20447;-63
2022/06/01 10:29:45;;;;;;;3.35;1.10;;;;;;;;;;5086130;28;20036;-62
2022/06/01 10:32:37;;;;;;;1.63;0.50;;;;;;;;;;5085187;28;20036;-63
2022/06/01 10:35:16;;;;;;;1.58;0.50;;;;;;;;;;5075581;28;20081;-62
2022/06/01 10:37:50;;;;;;;0.70;0.60;;;;;;;;;;5085768;28;20050;-62
2022/06/01 10:40:42;;;;;;;1.10;0.70;;;;;;;;;;5086617;28;20040;-63
2022/06/01 10:43:17;;;;;;;0.70;0.70;;;;;;;;;;5081028;28;20431;-62
2022/06/01 10:45:49;;;;;;;1.70;0.70;;;;;;;;;;5079738;28;20078;-62
2022/06/01 10:48:30;;;;;;;1.00;0.52;;;;;;;;;;5087952;28;20033;-62
2022/06/01 10:51:22;;;;;;;2.35;0.77;;;;;;;;;;5086138;28;20063;-61
2022/06/01 10:54:03;;;;;;;1.42;0.77;;;;;;;;;;5083265;28;20060;-62
2022/06/01 10:56:30;;;;;;;1.05;0.90;;;;;;;;;;5084750;28;20131;-62
2022/06/01 10:58:59;;;;;;;0.88;0.82;;;;;;;;;;5087668;28;20650;-62
2022/06/01 11:01:28;;;;;;;2.13;1.00;;;;;;;;;;5082337;28;20089;-62
2022/06/01 11:04:13;;;;;;;4.78;1.10;;;;;;;;;;5088990;28;20054;-62
2022/06/01 11:06:44;;;;;;;1.27;1.08;;;;;;;;;;5081482;28;20134;-62
2022/06/01 11:09:17;;;;;;;3.42;1.50;;;;;;;;;;5087237;28;20036;-63
2022/06/01 11:12:06;;;;;;;3.63;1.70;;;;;;;;;;5085735;28;20036;-62
2022/06/01 11:14:39;;;;;;;2.50;1.60;;;;;;;;;;5079027;28;20416;-62
2022/06/01 11:17:26;;;;;;;2.03;1.50;;;;;;;;;;5084983;28;20044;-63
2022/06/01 11:20:11;;;;;;;2.22;1.90;;;;;;;;;;5088506;28;20523;-62
2022/06/01 11:22:39;;;;;;;3.25;1.95;;;;;;;;;;5078581;28;20040;-62
2022/06/01 11:25:05;;;;;;;3.03;2.30;;;;;;;;;;5090309;28;21142;-62
2022/06/01 11:27:44;;;;;;;5.15;2.50;;;;;;;;;;5073003;28;21709;-63
2022/06/01 11:30:21;;;;;;;3.58;2.65;;;;;;;;;;5086692;28;20417;-63
2022/06/01 11:32:47;;;;;;;4.72;2.85;;;;;;;;;;5086972;28;20047;-63
2022/06/01 11:35:16;;;;;;;3.22;2.58;;;;;;;;;;5085900;28;20047;-63
2022/06/01 11:37:54;;;;;;;5.68;2.42;;;;;;;;;;5090231;28;20043;-64
2022/06/01 11:40:37;;;;;;;3.08;2.53;;;;;;;;;;5070757;28;20047;-63
2022/06/01 11:43:08;;;;;;;3.33;2.58;;;;;;;;;;5087271;28;20478;-63
2022/06/01 11:45:36;;;;;;;3.83;2.83;;;;;;;;;;5089677;28;20032;-63
2022/06/01 11:48:13;;;;;;;4.05;2.80;;;;;;;;;;5088486;28;20493;-63
2022/06/01 11:50:58;;;;;;;4.40;2.97;;;;;;;;;;5088084;28;20568;-62
2022/06/01 11:53:33;;;;;;;5.53;3.65;;;;;;;;;;5089069;28;20072;-63
2022/06/01 11:56:25;;;;;;;3.60;3.22;;;;;;;;;;5086113;28;20036;-62
2022/06/01 11:59:03;;;;;;;6.28;3.90;;;;;;;;;;5052478;28;20044;-62
2022/06/01 12:01:32;;;;;;;6.00;3.97;;;;;;;;;;5087989;28;20040;-62
2022/06/01 12:04:17;;;;;;;5.45;4.18;;;;;;;;;;5088198;28;20089;-62
2022/06/01 12:06:46;;;;;;;4.15;3.20;;;;;;;;;;5092045;28;20059;-62
2022/06/01 12:09:31;;;;;;;2.13;1.90;;;;;;;;;;5082929;28;20123;-62
2022/06/01 12:11:57;;;;;;;2.13;1.50;;;;;;;;;;5085288;28;20041;-62
2022/06/01 12:14:26;;;;;;;4.40;1.80;;;;;;;;;;5085117;28;20043;-63
2022/06/01 12:17:11;;;;;;;3.60;1.70;;;;;;;;;;5086381;28;20154;-62
2022/06/01 12:19:37;;;;;;;2.88;1.90;;;;;;;;;;5089956;28;20067;-62
2022/06/01 12:22:03;;;;;;;3.17;2.00;;;;;;;;;;5080038;28;20067;-62
2022/06/01 12:30:18;;;;;;;2.47;1.83;;;;;;;;;;5085824;28;20049;-62
2022/06/01 12:32:53;;;;;;;4.05;1.67;;;;;;;;;;5083604;28;20115;-62
2022/06/01 12:35:21;;;;;;;1.50;1.40;;;;;;;;;;5089853;28;20040;-62
2022/06/01 12:37:59;;;;;;;1.35;1.20;;;;;;;;;;5091976;28;20051;-62
2022/06/01 12:40:26;;;;;;;1.48;1.15;;;;;;;;;;5079208;28;20090;-61
2022/06/01 12:43:00;;;;;;;3.03;1.08;;;;;;;;;;5084806;28;20455;-62
2022/06/01 12:45:36;;;;;;;1.63;0.95;;;;;;;;;;5085150;28;20118;-61
2022/06/01 12:48:07;;;;;;;1.20;0.80;;;;;;;;;;5089131;28;20736;-62
2022/06/01 12:50:45;;;;;;;1.80;1.30;;;;;;;;;;5109794;22;20044;-63
2022/06/01 12:53:12;;;;;;;1.27;0.80;;;;;;;;;;5089032;28;20135;-63
2022/06/01 12:55:38;;;;;;;0.98;0.73;;;;;;;;;;5089845;28;20515;-63
2022/06/01 12:58:09;;;;;;;2.10;1.02;;;;;;;;;;5088592;28;20101;-63
2022/06/01 13:00:37;;;;;;;0.82;0.82;;;;;;;;;;5087246;28;20042;-63
2022/06/01 13:03:12;;;;;;;1.40;0.90;;;;;;;;;;5091705;28;20493;-63
2022/06/01 13:05:46;;;;;;;1.25;0.68;;;;;;;;;;5088383;28;20482;-64
2022/06/01 13:08:32;;;;;;;1.42;0.73;;;;;;;;;;5067645;28;20047;-64
2022/06/01 13:11:19;;;;;;;1.67;0.82;;;;;;;;;;5083346;28;20039;-64
2022/06/01 13:13:45;;;;;;;1.30;1.20;;;;;;;;;;5076667;28;20076;-64
2022/06/01 13:16:11;;;;;;;1.15;1.05;;;;;;;;;;5077729;28;20040;-64
2022/06/01 13:18:40;;;;;;;0.90;0.90;;;;;;;;;;5085187;28;20040;-63
2022/06/01 13:21:09;;;;;;;3.65;1.35;;;;;;;;;;5087044;28;20040;-63
2022/06/01 13:23:41;;;;;;;2.72;1.50;;;;;;;;;;5083525;28;20043;-63
2022/06/01 13:26:08;;;;;;;4.35;1.42;;;;;;;;;;5091929;28;20477;-63
2022/06/01 13:28:34;;;;;;;3.72;1.40;;;;;;;;;;5087417;28;20044;-63
2022/06/01 13:31:00;;;;;;;1.52;1.40;;;;;;;;;;5075537;28;20127;-62
2022/06/01 13:33:31;;;;;;;2.70;2.08;;;;;;;;;;5082646;28;20039;-62
2022/06/01 13:35:59;;;;;;;2.33;1.60;;;;;;;;;;5087183;28;20118;-62
2022/06/01 13:38:33;;;;;;;3.17;1.63;;;;;;;;;;5088452;28;20485;-63
2022/06/01 13:41:09;;;;;;;1.90;1.80;;;;;;;;;;5084215;28;20048;-63
2022/06/01 13:43:43;;;;;;;2.92;2.10;;;;;;;;;;5090032;28;20040;-63
2022/06/01 13:46:11;;;;;;;2.15;1.70;;;;;;;;;;5083670;28;20115;-63
2022/06/01 13:48:53;;;;;;;1.60;1.30;;;;;;;;;;5084598;28;20024;-63
2022/06/01 13:51:23;;;;;;;1.60;1.23;;;;;;;;;;5078202;28;20040;-63
2022/06/01 13:53:49;;;;;;;1.60;1.48;;;;;;;;;;5082966;28;20071;-63
2022/06/01 13:56:21;;;;;;;2.00;1.45;;;;;;;;;;5087393;28;20503;-63
2022/06/01 13:58:59;;;;;;;1.88;1.58;;;;;;;;;;5081872;28;20044;-63
2022/06/01 14:01:27;;;;;;;2.17;1.48;;;;;;;;;;5075272;28;20041;-63
2022/06/01 14:03:55;;;;;;;1.65;1.50;;;;;;;;;;5100628;28;20489;-63
2022/06/01 14:06:34;;;;;;;1.80;1.20;;;;;;;;;;5092829;28;20513;-63
2022/06/01 14:09:01;;;;;;;1.20;1.00;;;;;;;;;;5086591;28;20032;-63
2022/06/01 14:11:31;;;;;;;1.10;1.00;;;;;;;;;;5086671;28;20042;-64
2022/06/01 14:14:00;;;;;;;1.10;1.00;;;;;;;;;;5081893;28;20045;-63
2022/06/01 14:16:26;;;;;;;1.58;1.00;;;;;;;;;;5077948;28;20110;-64
2022/06/01 14:18:56;;;;;;;2.58;1.17;;;;;;;;;;5087202;28;20044;-63
2022/06/01 14:21:23;;;;;;;1.63;0.90;;;;;;;;;;5078151;28;20064;-63
2022/06/01 14:23:49;;;;;;;0.93;0.77;;;;;;;;;;5069076;28;20101;-63
2022/06/01 14:29:00;;;;;;;1.05;0.70;;;;;;;;;;5085177;28;20130;-63
2022/06/01 14:31:30;;;;;;;0.60;0.60;;;;;;;;;;5085331;28;20043;-63
2022/06/01 14:33:56;;;;;;;0.73;0.73;;;;;;;;;;5082982;28;20041;-63
2022/06/01 14:36:23;;;;;;;0.73;0.70;;;;;;;;;;5093142;28;20041;-64
2022/06/01 14:38:50;;;;;;;0.60;0.60;;;;;;;;;;5085690;28;20387;-63
2022/06/01 14:41:27;;;;;;;2.55;0.70;;;;;;;;;;5082555;28;20044;-64
2022/06/01 14:43:55;;;;;;;1.55;0.70;;;;;;;;;;5081569;28;20051;-64
2022/06/01 14:46:21;;;;;;;0.50;0.50;;;;;;;;;;5084998;28;20405;-64
2022/06/01 14:48:48;;;;;;;1.50;0.60;;;;;;;;;;5090315;28;20032;-64
2022/06/01 14:51:15;;;;;;;1.23;0.60;;;;;;;;;;5084276;28;20157;-64
2022/06/01 14:53:41;;;;;;;0.50;0.50;;;;;;;;;;5084978;28;20122;-64
2022/06/01 14:56:08;;;;;;;1.20;0.60;;;;;;;;;;5084533;28;20043;-63
2022/06/01 14:58:34;;;;;;;1.27;0.57;;;;;;;;;;5089831;28;20507;-63
2022/06/01 15:01:12;;;;;;;1.20;0.82;;;;;;;;;;5067283;28;20032;-63
2022/06/01 15:03:43;;;;;;;1.60;0.85;;;;;;;;;;5086429;28;20465;-63
2022/06/01 15:06:10;;;;;;;1.77;0.90;;;;;;;;;;5085863;28;20028;-64
2022/06/01 15:08:37;;;;;;;1.13;0.60;;;;;;;;;;5090706;28;20047;-63
2022/06/01 15:11:03;;;;;;;2.67;0.80;;;;;;;;;;5088283;28;20451;-63
2022/06/01 15:13:30;;;;;;;0.68;0.60;;;;;;;;;;5081599;28;20047;-63
2022/06/01 15:15:56;;;;;;;0.50;0.50;;;;;;;;;;5082651;28;20089;-63
2022/06/01 15:18:24;;;;;;;1.70;0.70;;;;;;;;;;5083872;28;20036;-64